createdAt,value
2022-11-30T00:04:22.312Z,17.77
2022-11-30T00:06:57.554Z,18.52
2022-11-30T00:09:46.600Z,18.35
2022-11-30T00:12:33.634Z,18.83
2022-11-30T00:15:28.117Z,19.08
2022-11-30T00:18:15.877Z,18.75
2022-11-30T00:21:07.322Z,17.83
2022-11-30T00:23:50.591Z,16.98
2022-11-30T00:26:37.612Z,18.52
2022-11-30T00:29:21.755Z,17.40
2022-11-30T00:32:15.116Z,18.33
2022-11-30T00:37:44.230Z,17.55
2022-11-30T00:40:37.882Z,17.67
2022-11-30T00:43:46.724Z,16.90
2022-11-30T00:46:40.011Z,16.58
2022-11-30T00:49:38.735Z,17.02
2022-11-30T00:52:25.943Z,18.50
2022-11-30T00:55:08.297Z,18.95
2022-11-30T00:57:48.291Z,18.88
2022-11-30T01:00:33.603Z,19.15
2022-11-30T01:03:09.392Z,19.77
2022-11-30T01:05:52.323Z,15.98
2022-11-30T01:08:57.313Z,18.17
2022-11-30T01:12:04.563Z,18.33
2022-11-30T01:18:11.506Z,18.30
2022-11-30T01:21:03.616Z,17.95
2022-11-30T01:23:58.068Z,17.77
2022-11-30T01:26:56.158Z,16.33
2022-11-30T01:29:45.063Z,17.35
2022-11-30T01:32:37.712Z,17.10
2022-11-30T01:35:35.208Z,16.65
2022-11-30T01:38:11.028Z,16.65
2022-11-30T01:40:51.975Z,16.30
2022-11-30T01:43:44.879Z,16.48
2022-11-30T01:46:35.927Z,17.00
2022-11-30T01:49:19.773Z,17.30
2022-11-30T01:52:00.857Z,17.98
2022-11-30T01:54:39.913Z,16.30
2022-11-30T01:57:20.111Z,16.23
2022-11-30T01:59:56.278Z,16.25
2022-11-30T02:02:39.001Z,15.57
2022-11-30T02:05:13.991Z,14.70
2022-11-30T02:07:49.710Z,17.73
2022-11-30T02:10:26.691Z,17.52
2022-11-30T02:13:38.706Z,17.15
2022-11-30T02:16:23.131Z,16.50
2022-11-30T02:19:12.561Z,16.27
2022-11-30T02:21:53.382Z,16.38
2022-11-30T02:24:54.101Z,17.67
2022-11-30T02:27:44.045Z,15.98
2022-11-30T02:30:26.003Z,16.55
2022-11-30T02:33:07.548Z,16.63
2022-11-30T02:35:49.112Z,17.58
2022-11-30T02:38:27.890Z,15.82
2022-11-30T02:41:04.408Z,17.00
2022-11-30T02:43:42.128Z,14.77
2022-11-30T02:46:24.020Z,15.77
2022-11-30T02:49:05.309Z,16.80
2022-11-30T02:51:41.480Z,16.55
2022-11-30T02:54:15.050Z,17.95
2022-11-30T02:56:51.198Z,18.10
2022-11-30T02:59:24.918Z,16.00
2022-11-30T03:02:02.287Z,16.23
2022-11-30T03:04:38.786Z,17.35
2022-11-30T03:07:12.291Z,16.77
2022-11-30T03:09:45.778Z,16.48
2022-11-30T03:12:20.948Z,16.80
2022-11-30T03:14:54.925Z,15.85
2022-11-30T03:20:03.203Z,16.58
2022-11-30T03:22:36.723Z,14.57
2022-11-30T03:25:10.785Z,18.92
2022-11-30T03:27:44.284Z,16.77
2022-11-30T03:30:20.740Z,17.40
2022-11-30T03:32:55.700Z,16.15
2022-11-30T03:35:29.188Z,15.05
2022-11-30T03:38:02.675Z,16.30
2022-11-30T03:40:37.969Z,15.88
2022-11-30T03:43:11.432Z,15.43
2022-11-30T03:45:46.743Z,16.25
2022-11-30T03:48:21.831Z,14.82
2022-11-30T03:50:55.482Z,14.30
2022-11-30T03:53:29.365Z,14.20
2022-11-30T03:56:05.173Z,13.48
2022-11-30T03:58:39.236Z,13.48
2022-11-30T04:01:14.848Z,14.57
2022-11-30T04:03:50.244Z,14.65
2022-11-30T04:06:23.860Z,14.70
2022-11-30T04:09:00.112Z,14.93
2022-11-30T04:11:33.666Z,14.50
2022-11-30T04:14:07.244Z,15.20
2022-11-30T04:16:40.862Z,14.80
2022-11-30T04:19:15.688Z,16.25
2022-11-30T04:21:49.486Z,15.90
2022-11-30T04:24:23.015Z,15.23
2022-11-30T04:26:56.458Z,13.75
2022-11-30T04:29:30.008Z,15.27
2022-11-30T04:32:03.459Z,13.20
2022-11-30T04:34:38.415Z,14.95
2022-11-30T04:37:12.118Z,15.68
2022-11-30T04:39:45.551Z,14.73
2022-11-30T04:42:19.207Z,15.38
2022-11-30T04:44:52.684Z,14.93
2022-11-30T04:47:26.253Z,14.73
2022-11-30T04:50:01.146Z,14.13
2022-11-30T04:52:34.965Z,13.35
2022-11-30T04:55:09.164Z,13.07
2022-11-30T04:57:42.660Z,13.05
2022-11-30T05:00:18.182Z,13.68
2022-11-30T05:02:53.171Z,13.68
2022-11-30T05:05:28.313Z,13.75
2022-11-30T05:08:01.867Z,14.60
2022-11-30T05:10:35.447Z,13.15
2022-11-30T05:13:08.998Z,13.25
2022-11-30T05:15:42.463Z,13.48
2022-11-30T05:18:16.942Z,12.27
2022-11-30T05:20:52.993Z,11.75
2022-11-30T05:23:26.517Z,13.25
2022-11-30T05:26:02.462Z,13.18
2022-11-30T05:28:35.979Z,12.27
2022-11-30T05:31:09.490Z,13.10
2022-11-30T05:33:43.091Z,14.40
2022-11-30T05:36:17.996Z,14.60
2022-11-30T05:38:51.490Z,15.15
2022-11-30T05:41:25.165Z,13.07
2022-11-30T05:43:58.581Z,14.27
2022-11-30T05:46:32.117Z,14.85
2022-11-30T05:49:05.946Z,17.70
2022-11-30T05:51:41.708Z,18.25
2022-11-30T05:54:15.155Z,17.00
2022-11-30T05:56:53.124Z,16.08
2022-11-30T05:59:28.256Z,16.05
2022-11-30T06:02:01.960Z,13.98
2022-11-30T06:04:36.090Z,13.50
2022-11-30T06:07:12.189Z,13.07
2022-11-30T06:09:45.686Z,11.90
2022-11-30T06:12:19.166Z,13.45
2022-11-30T06:14:52.715Z,12.98
2022-11-30T06:17:26.190Z,12.68
2022-11-30T06:19:59.718Z,11.98
2022-11-30T06:22:34.659Z,13.43
2022-11-30T06:25:08.822Z,13.15
2022-11-30T06:27:43.794Z,12.80
2022-11-30T06:30:17.504Z,15.07
2022-11-30T06:32:54.753Z,13.63
2022-11-30T06:35:28.189Z,12.93
2022-11-30T06:38:03.168Z,15.95
2022-11-30T06:40:36.807Z,14.82
2022-11-30T06:43:10.459Z,13.63
2022-11-30T06:45:45.188Z,14.00
2022-11-30T06:48:18.740Z,14.40
2022-11-30T06:50:52.258Z,14.43
2022-11-30T06:53:27.521Z,15.60
2022-11-30T06:56:05.200Z,13.75
2022-11-30T06:58:42.605Z,12.82
2022-11-30T07:01:16.714Z,11.40
2022-11-30T07:03:50.710Z,12.90
2022-11-30T07:06:24.353Z,13.15
2022-11-30T07:08:59.319Z,12.65
2022-11-30T07:11:33.512Z,12.20
2022-11-30T07:14:07.109Z,13.38
2022-11-30T07:16:40.972Z,13.73
2022-11-30T07:22:42.265Z,15.32
2022-11-30T07:25:38.157Z,13.13
2022-11-30T07:28:11.636Z,14.20
2022-11-30T07:30:45.072Z,12.43
2022-11-30T07:33:18.494Z,12.93
2022-11-30T07:35:53.908Z,14.27
2022-11-30T07:38:27.418Z,13.25
2022-11-30T07:41:02.299Z,13.40
2022-11-30T07:43:36.044Z,14.68
2022-11-30T07:46:11.127Z,13.75
2022-11-30T07:48:46.141Z,13.50
2022-11-30T07:51:20.885Z,13.27
2022-11-30T07:53:56.769Z,13.27
2022-11-30T07:56:33.559Z,13.45
2022-11-30T07:59:06.976Z,13.95
2022-11-30T08:01:40.479Z,12.70
2022-11-30T08:04:14.667Z,11.85
2022-11-30T08:06:48.102Z,13.43
2022-11-30T08:09:21.556Z,12.68
2022-11-30T08:11:56.437Z,13.43
2022-11-30T08:14:29.853Z,13.55
2022-11-30T08:17:05.755Z,12.95
2022-11-30T08:19:44.282Z,12.80
2022-11-30T08:22:19.462Z,13.02
2022-11-30T08:24:52.861Z,12.52
2022-11-30T08:27:33.705Z,11.98
2022-11-30T08:30:11.203Z,13.43
2022-11-30T08:32:44.785Z,13.52
2022-11-30T08:35:18.195Z,12.30
2022-11-30T08:38:08.725Z,12.45
2022-11-30T08:40:42.183Z,12.75
2022-11-30T08:43:17.007Z,13.35
2022-11-30T08:45:54.397Z,15.85
2022-11-30T08:48:30.531Z,13.30
2022-11-30T08:51:04.518Z,14.18
2022-11-30T08:56:18.404Z,12.70
2022-11-30T08:59:02.000Z,13.48
2022-11-30T09:01:38.245Z,13.63
2022-11-30T09:04:11.691Z,14.13
2022-11-30T09:06:45.103Z,15.35
2022-11-30T09:09:21.168Z,17.38
2022-11-30T09:11:54.594Z,17.50
2022-11-30T09:14:29.568Z,17.05
2022-11-30T09:17:05.404Z,13.63
2022-11-30T09:19:39.018Z,14.18
2022-11-30T09:22:12.585Z,16.35
2022-11-30T09:24:46.336Z,15.98
2022-11-30T09:29:59.355Z,16.00
2022-11-30T09:32:34.927Z,15.80
2022-11-30T09:35:12.815Z,14.88
2022-11-30T09:37:46.670Z,15.07
2022-11-30T09:40:37.944Z,18.08
2022-11-30T09:43:26.248Z,15.70
2022-11-30T09:46:06.380Z,17.63
2022-11-30T09:49:03.430Z,17.95
2022-11-30T09:51:44.796Z,17.77
2022-11-30T09:54:22.664Z,17.15
2022-11-30T09:56:56.310Z,17.15
2022-11-30T09:59:35.056Z,19.33
2022-11-30T10:02:19.221Z,18.55
2022-11-30T10:07:56.597Z,16.52
2022-11-30T10:10:38.874Z,16.48
2022-11-30T10:13:30.644Z,16.60
2022-11-30T10:16:15.745Z,16.45
2022-11-30T10:19:00.531Z,17.95
2022-11-30T10:21:49.088Z,17.05
2022-11-30T10:24:41.357Z,18.08
2022-11-30T10:27:19.531Z,15.70
2022-11-30T10:29:53.257Z,17.25
2022-11-30T10:32:31.328Z,17.58
2022-11-30T10:35:23.176Z,17.67
2022-11-30T10:37:59.358Z,17.38
2022-11-30T10:40:39.671Z,17.23
2022-11-30T10:43:20.010Z,18.85
2022-11-30T10:45:54.100Z,18.45
2022-11-30T10:51:05.884Z,21.40
2022-11-30T10:53:39.739Z,23.15
2022-11-30T10:56:15.306Z,23.67
2022-11-30T10:58:56.417Z,25.10
2022-11-30T11:01:35.307Z,27.35
2022-11-30T11:04:16.816Z,25.67
2022-11-30T11:09:37.881Z,20.52
2022-11-30T11:12:18.922Z,21.88
2022-11-30T11:15:10.066Z,22.20
2022-11-30T11:17:43.658Z,22.90
2022-11-30T11:20:35.620Z,21.63
2022-11-30T11:23:23.246Z,21.52
2022-11-30T11:25:58.660Z,18.55
2022-11-30T11:28:33.383Z,18.52
2022-11-30T11:31:19.725Z,19.35
2022-11-30T11:33:55.594Z,19.23
2022-11-30T11:36:33.715Z,19.42
2022-11-30T11:39:27.148Z,17.20
2022-11-30T11:42:01.775Z,17.50
2022-11-30T11:44:35.679Z,16.40
2022-11-30T11:47:22.798Z,16.98
2022-11-30T11:50:08.307Z,16.45
2022-11-30T11:52:43.658Z,21.48
2022-11-30T11:55:21.296Z,18.33
2022-11-30T11:58:00.799Z,18.55
2022-11-30T12:00:37.571Z,21.25
2022-11-30T12:03:20.237Z,21.15
2022-11-30T12:06:04.849Z,20.70
2022-11-30T12:08:46.563Z,20.38
2022-11-30T12:11:26.133Z,20.08
2022-11-30T12:13:59.739Z,20.80
2022-11-30T12:16:42.133Z,20.90
2022-11-30T12:19:21.678Z,20.75
2022-11-30T12:22:04.726Z,20.98
2022-11-30T12:25:04.251Z,21.77
2022-11-30T12:27:53.620Z,23.90
2022-11-30T12:30:38.750Z,28.45
2022-11-30T12:33:17.055Z,25.33
2022-11-30T12:36:04.134Z,26.67
2022-11-30T12:38:44.710Z,25.00
2022-11-30T12:41:39.946Z,26.73
2022-11-30T12:44:38.527Z,27.77
2022-11-30T12:47:30.467Z,29.20
2022-11-30T12:50:35.352Z,26.88
2022-11-30T12:56:01.535Z,26.13
2022-11-30T12:58:46.394Z,30.80
2022-11-30T13:01:41.637Z,27.10
2022-11-30T13:04:20.686Z,24.80
2022-11-30T13:06:59.772Z,24.55
2022-11-30T13:09:46.675Z,25.67
2022-11-30T13:12:36.377Z,23.08
2022-11-30T13:15:17.645Z,24.63
2022-11-30T13:18:03.079Z,30.15
2022-11-30T13:20:44.343Z,29.10
2022-11-30T13:23:31.679Z,27.50
2022-11-30T13:26:22.262Z,25.55
2022-11-30T13:29:19.626Z,28.70
2022-11-30T13:32:05.583Z,27.13
2022-11-30T13:34:40.414Z,28.33
2022-11-30T13:37:23.049Z,27.88
2022-11-30T13:40:01.045Z,21.65
2022-11-30T13:42:37.889Z,18.15
2022-11-30T13:45:27.110Z,19.30
2022-11-30T13:48:02.227Z,21.25
2022-11-30T13:50:39.977Z,20.85
2022-11-30T13:53:34.458Z,20.70
2022-11-30T13:56:23.767Z,18.42
2022-11-30T13:59:41.019Z,18.23
2022-11-30T14:02:58.310Z,21.45
2022-11-30T14:05:44.424Z,24.90
2022-11-30T14:08:34.730Z,19.10
2022-11-30T14:11:39.615Z,18.35
2022-11-30T14:14:48.955Z,17.88
2022-11-30T14:17:29.055Z,16.45
2022-11-30T14:20:16.092Z,16.63
2022-11-30T14:22:52.532Z,17.65
2022-11-30T14:25:33.686Z,17.20
2022-11-30T14:28:11.860Z,20.70
2022-11-30T14:30:45.722Z,18.95
2022-11-30T14:33:26.647Z,15.50
2022-11-30T14:36:02.035Z,14.25
2022-11-30T14:38:43.511Z,15.38
2022-11-30T14:41:26.135Z,14.38
2022-11-30T14:44:05.584Z,15.98
2022-11-30T14:46:39.349Z,17.05
2022-11-30T14:49:17.683Z,16.83
2022-11-30T14:51:54.000Z,14.05
2022-11-30T14:54:52.243Z,14.68
2022-11-30T14:57:33.549Z,15.18
2022-11-30T15:00:08.607Z,15.70
2022-11-30T15:02:45.845Z,14.52
2022-11-30T15:05:24.136Z,15.57
2022-11-30T15:07:58.381Z,16.40
2022-11-30T15:10:36.185Z,17.25
2022-11-30T15:13:17.259Z,18.90
2022-11-30T15:15:55.394Z,19.58
2022-11-30T15:18:28.859Z,17.08
2022-11-30T15:21:09.181Z,18.35
2022-11-30T15:23:45.579Z,15.13
2022-11-30T15:26:35.712Z,18.10
2022-11-30T15:29:17.543Z,15.77
2022-11-30T15:31:53.228Z,15.98
2022-11-30T15:34:40.256Z,17.20
2022-11-30T15:37:16.765Z,16.23
2022-11-30T15:39:53.054Z,17.90
2022-11-30T15:42:39.905Z,20.10
2022-11-30T15:45:17.693Z,17.60
2022-11-30T15:47:51.546Z,18.85
2022-11-30T15:50:38.440Z,16.25
2022-11-30T15:53:33.737Z,15.75
2022-11-30T15:56:10.432Z,15.18
2022-11-30T15:59:03.096Z,16.20
2022-11-30T16:02:02.451Z,15.95
2022-11-30T16:05:14.850Z,17.35
2022-11-30T16:07:52.007Z,17.88
2022-11-30T16:10:27.714Z,16.90
2022-11-30T16:13:01.137Z,18.63
2022-11-30T16:15:37.875Z,19.88
2022-11-30T16:18:17.624Z,19.10
2022-11-30T16:20:53.683Z,19.30
2022-11-30T16:23:28.291Z,17.35
2022-11-30T16:26:01.823Z,17.75
2022-11-30T16:28:35.391Z,17.55
2022-11-30T16:31:19.033Z,17.30
2022-11-30T16:33:52.643Z,19.42
2022-11-30T16:36:26.159Z,17.67
2022-11-30T16:38:59.515Z,18.08
2022-11-30T16:41:33.111Z,16.48
2022-11-30T16:44:16.492Z,19.42
2022-11-30T16:46:54.115Z,15.25
2022-11-30T16:49:35.075Z,14.57
2022-11-30T16:52:11.234Z,15.23
2022-11-30T16:54:53.511Z,13.93
2022-11-30T16:57:27.050Z,15.15
2022-11-30T17:00:00.602Z,13.77
2022-11-30T17:02:37.473Z,14.82
2022-11-30T17:05:18.969Z,14.65
2022-11-30T17:07:52.635Z,15.38
2022-11-30T17:10:26.280Z,15.30
2022-11-30T17:13:01.852Z,12.73
2022-11-30T17:15:35.575Z,12.32
2022-11-30T17:18:10.735Z,12.38
2022-11-30T17:20:44.496Z,14.27
2022-11-30T17:23:18.009Z,14.35
2022-11-30T17:25:52.081Z,13.52
2022-11-30T17:28:25.675Z,14.90
2022-11-30T17:30:59.581Z,15.25
2022-11-30T17:33:36.811Z,16.55
2022-11-30T17:36:13.970Z,16.40
2022-11-30T17:38:47.652Z,16.85
2022-11-30T17:41:25.855Z,16.02
2022-11-30T17:44:03.097Z,16.05
2022-11-30T17:46:45.318Z,14.82
2022-11-30T17:49:22.939Z,16.05
2022-11-30T17:51:57.642Z,15.07
2022-11-30T17:54:33.632Z,16.25
2022-11-30T17:57:07.248Z,16.83
2022-11-30T17:59:43.131Z,16.45
2022-11-30T18:02:16.759Z,15.73
2022-11-30T18:04:52.819Z,16.40
2022-11-30T18:07:29.108Z,16.17
2022-11-30T18:10:02.826Z,17.67
2022-11-30T18:12:36.464Z,18.30
2022-11-30T18:15:10.807Z,17.17
2022-11-30T18:17:44.360Z,18.52
2022-11-30T18:20:20.109Z,17.15
2022-11-30T18:22:53.600Z,19.00
2022-11-30T18:25:27.123Z,17.70
2022-11-30T18:28:00.764Z,17.60
2022-11-30T18:30:34.570Z,16.77
2022-11-30T18:33:08.690Z,15.85
2022-11-30T18:35:43.491Z,18.15
2022-11-30T18:38:17.008Z,17.60
2022-11-30T18:40:50.404Z,20.35
2022-11-30T18:43:24.971Z,20.73
2022-11-30T18:46:04.251Z,22.75
2022-11-30T18:48:50.060Z,23.05
2022-11-30T18:51:26.901Z,23.42
2022-11-30T18:54:05.374Z,23.08
2022-11-30T18:56:42.745Z,23.20
2022-11-30T18:59:19.592Z,24.23
2022-11-30T19:01:53.671Z,24.73
2022-11-30T19:04:29.298Z,23.95
2022-11-30T19:07:04.414Z,26.90
2022-11-30T19:09:38.177Z,29.15
2022-11-30T19:12:14.756Z,28.73
2022-11-30T19:14:50.601Z,29.90
2022-11-30T19:17:30.299Z,33.58
2022-11-30T19:20:04.190Z,33.10
2022-11-30T19:25:17.746Z,31.75
2022-11-30T19:27:52.891Z,33.13
2022-11-30T19:30:27.940Z,33.65
2022-11-30T19:33:01.814Z,34.75
2022-11-30T19:35:35.412Z,32.25
2022-11-30T19:38:10.458Z,33.75
2022-11-30T19:40:43.970Z,34.03
2022-11-30T19:43:17.630Z,33.55
2022-11-30T19:45:51.519Z,34.10
2022-11-30T19:48:27.721Z,31.85
2022-11-30T19:51:01.644Z,31.15
2022-11-30T19:53:39.853Z,31.17
2022-11-30T19:56:15.666Z,31.85
2022-11-30T19:58:52.221Z,30.60
2022-11-30T20:01:28.005Z,30.45
2022-11-30T20:04:01.672Z,27.40
2022-11-30T20:06:43.334Z,30.73
2022-11-30T20:09:18.563Z,29.85
2022-11-30T20:11:52.333Z,28.27
2022-11-30T20:14:28.390Z,30.20
2022-11-30T20:17:02.131Z,30.13
2022-11-30T20:19:35.846Z,29.45
2022-11-30T20:22:09.756Z,28.92
2022-11-30T20:24:47.606Z,27.73
2022-11-30T20:27:24.140Z,29.48
2022-11-30T20:29:58.011Z,24.60
2022-11-30T20:32:31.848Z,25.10
2022-11-30T20:35:07.865Z,26.98
2022-11-30T20:37:44.980Z,27.67
2022-11-30T20:40:20.424Z,29.48
2022-11-30T20:42:58.168Z,26.42
2022-11-30T20:45:32.745Z,26.17
2022-11-30T20:48:06.674Z,27.92
2022-11-30T20:53:16.426Z,25.73
2022-11-30T20:55:56.609Z,24.58
2022-11-30T20:58:35.551Z,24.10
2022-11-30T21:01:14.258Z,26.58
2022-11-30T21:03:48.544Z,25.42
2022-11-30T21:06:31.383Z,27.80
2022-11-30T21:09:05.739Z,27.98
2022-11-30T21:11:41.448Z,30.35
2022-11-30T21:14:15.749Z,30.35
2022-11-30T21:16:51.967Z,24.52
2022-11-30T21:19:29.614Z,26.70
2022-11-30T21:22:04.721Z,26.95
2022-11-30T21:24:38.837Z,24.60
2022-11-30T21:29:47.279Z,24.67
2022-11-30T21:32:21.078Z,22.60
2022-11-30T21:37:31.216Z,21.77
2022-11-30T21:40:05.452Z,22.75
2022-11-30T21:42:40.328Z,21.42
2022-11-30T21:45:13.916Z,21.75
2022-11-30T21:47:47.540Z,22.05
2022-11-30T21:50:26.901Z,22.13
2022-11-30T21:53:00.894Z,20.80
2022-11-30T21:55:36.720Z,22.60
2022-11-30T21:58:11.754Z,20.02
2022-11-30T22:00:45.313Z,21.92
2022-11-30T22:03:19.747Z,24.20
2022-11-30T22:06:04.414Z,25.48
2022-11-30T22:08:38.651Z,23.70
2022-11-30T22:11:14.118Z,24.67
2022-11-30T22:13:51.562Z,24.52
2022-11-30T22:16:32.402Z,22.70
2022-11-30T22:19:09.275Z,23.40
2022-11-30T22:24:23.603Z,27.63
2022-11-30T22:26:57.154Z,28.52
2022-11-30T22:29:32.260Z,27.05
2022-11-30T22:32:06.267Z,27.00
2022-11-30T22:34:40.123Z,25.23
2022-11-30T22:37:13.961Z,24.00
2022-11-30T22:39:50.654Z,23.73
2022-11-30T22:42:24.252Z,26.63
2022-11-30T22:44:59.064Z,24.88
2022-11-30T22:47:35.027Z,24.17
2022-11-30T22:50:09.254Z,24.75
2022-11-30T22:53:02.375Z,25.35
2022-11-30T22:55:36.233Z,27.05
2022-11-30T22:58:09.831Z,27.05
2022-11-30T23:00:44.787Z,26.67
2022-11-30T23:03:21.233Z,27.50
2022-11-30T23:05:55.211Z,26.50
2022-11-30T23:08:29.589Z,25.80
2022-11-30T23:11:04.988Z,26.13
2022-11-30T23:13:39.404Z,24.23
2022-11-30T23:16:15.626Z,23.58
2022-11-30T23:18:51.777Z,26.13
2022-11-30T23:21:29.962Z,25.15
2022-11-30T23:24:06.182Z,24.92
2022-11-30T23:26:40.206Z,23.83
2022-11-30T23:34:23.678Z,21.83
2022-11-30T23:36:57.270Z,22.20
2022-11-30T23:39:30.921Z,22.70
2022-11-30T23:42:04.481Z,25.73
2022-11-30T23:44:37.966Z,21.77
2022-11-30T23:47:17.993Z,22.60
2022-11-30T23:49:51.926Z,22.42
2022-11-30T23:52:25.415Z,23.02
2022-11-30T23:54:58.908Z,23.63
2022-11-30T23:57:32.455Z,22.45
